createdAt,value
2019-03-18T00:00:13.919Z,100.00
2019-03-18T00:02:42.163Z,100.00
2019-03-18T00:05:10.608Z,100.00
2019-03-18T00:07:38.842Z,100.00
2019-03-18T00:10:08.127Z,100.00
2019-03-18T00:12:36.386Z,100.00
2019-03-18T00:15:06.802Z,100.00
2019-03-18T00:17:35.064Z,100.00
2019-03-18T00:20:03.678Z,100.00
2019-03-18T00:22:32.150Z,100.00
2019-03-18T00:25:00.401Z,100.00
2019-03-18T00:27:28.673Z,100.00
2019-03-18T00:29:56.918Z,100.00
2019-03-18T00:32:25.202Z,100.00
2019-03-18T00:34:53.454Z,100.00
2019-03-18T00:37:21.836Z,100.00
2019-03-18T00:39:50.082Z,100.00
2019-03-18T00:42:18.472Z,100.00
2019-03-18T00:44:46.726Z,100.00
2019-03-18T00:47:15.027Z,100.00
2019-03-18T00:49:43.294Z,100.00
2019-03-18T00:52:11.571Z,100.00
2019-03-18T00:54:39.952Z,100.00
2019-03-18T00:57:08.239Z,100.00
2019-03-18T00:59:36.531Z,100.00
2019-03-18T01:02:04.954Z,100.00
2019-03-18T01:04:33.279Z,100.00
2019-03-18T01:07:01.538Z,100.00
2019-03-18T01:09:29.911Z,100.00
2019-03-18T01:11:58.273Z,100.00
2019-03-18T01:14:26.509Z,100.00
2019-03-18T01:16:54.777Z,100.00
2019-03-18T01:19:23.037Z,100.00
2019-03-18T01:21:51.300Z,100.00
2019-03-18T01:24:19.546Z,100.00
2019-03-18T01:26:47.918Z,100.00
2019-03-18T01:29:16.170Z,100.00
2019-03-18T01:31:44.453Z,100.00
2019-03-18T01:34:12.743Z,100.00
2019-03-18T01:36:41.031Z,100.00
2019-03-18T01:39:09.363Z,100.00
2019-03-18T01:41:37.633Z,100.00
2019-03-18T01:44:06.008Z,100.00
2019-03-18T01:46:34.741Z,100.00
2019-03-18T01:49:03.029Z,100.00
2019-03-18T01:51:31.282Z,100.00
2019-03-18T01:53:59.527Z,100.00
2019-03-18T01:56:27.903Z,100.00
2019-03-18T01:58:56.196Z,100.00
2019-03-18T02:01:24.472Z,100.00
2019-03-18T02:03:52.741Z,100.00
2019-03-18T02:06:20.980Z,100.00
2019-03-18T02:08:49.245Z,100.00
2019-03-18T02:11:17.514Z,100.00
2019-03-18T02:13:45.812Z,100.00
2019-03-18T02:16:14.051Z,100.00
2019-03-18T02:18:42.321Z,100.00
2019-03-18T02:21:10.586Z,100.00
2019-03-18T02:23:38.966Z,100.00
2019-03-18T02:26:07.233Z,100.00
2019-03-18T02:28:35.558Z,100.00
2019-03-18T02:31:03.843Z,100.00
2019-03-18T02:33:32.174Z,100.00
2019-03-18T02:36:00.449Z,100.00
2019-03-18T02:38:28.746Z,100.00
2019-03-18T02:40:57.035Z,100.00
2019-03-18T02:43:25.281Z,100.00
2019-03-18T02:46:09.490Z,100.00
2019-03-18T02:48:24.491Z,100.00
2019-03-18T02:50:52.730Z,100.00
2019-03-18T02:53:21.046Z,100.00
2019-03-18T02:55:49.288Z,100.00
2019-03-18T02:58:17.626Z,100.00
2019-03-18T03:00:45.891Z,100.00
2019-03-18T03:03:14.317Z,100.00
2019-03-18T03:05:42.538Z,100.00
2019-03-18T03:08:10.787Z,100.00
2019-03-18T03:10:39.111Z,100.00
2019-03-18T03:13:07.412Z,100.00
2019-03-18T03:15:35.656Z,100.00
2019-03-18T03:18:03.960Z,100.00
2019-03-18T03:20:32.214Z,100.00
2019-03-18T03:23:00.484Z,100.00
2019-03-18T03:25:28.769Z,100.00
2019-03-18T03:27:57.286Z,100.00
2019-03-18T03:30:25.600Z,100.00
2019-03-18T03:32:53.872Z,100.00
2019-03-18T03:35:22.191Z,100.00
2019-03-18T03:37:50.470Z,100.00
2019-03-18T03:40:19.257Z,100.00
2019-03-18T03:42:47.529Z,100.00
2019-03-18T03:45:15.964Z,100.00
2019-03-18T03:47:44.240Z,100.00
2019-03-18T03:50:16.863Z,100.00
2019-03-18T03:52:45.105Z,100.00
2019-03-18T03:55:14.050Z,100.00
2019-03-18T03:57:42.335Z,100.00
2019-03-18T04:00:13.068Z,100.00
2019-03-18T04:02:41.407Z,100.00
2019-03-18T04:05:09.657Z,100.00
2019-03-18T04:07:37.989Z,100.00
2019-03-18T04:10:08.935Z,100.00
2019-03-18T04:12:37.203Z,100.00
2019-03-18T04:15:10.486Z,100.00
2019-03-18T04:17:38.911Z,100.00
2019-03-18T04:20:10.153Z,100.00
2019-03-18T04:22:38.559Z,100.00
2019-03-18T04:25:07.887Z,100.00
2019-03-18T04:27:36.188Z,100.00
2019-03-18T04:30:09.209Z,100.00
2019-03-18T04:32:37.509Z,100.00
2019-03-18T04:35:06.321Z,100.00
2019-03-18T04:37:34.612Z,100.00
2019-03-18T04:40:02.875Z,100.00
2019-03-18T04:42:31.263Z,100.00
2019-03-18T04:44:59.545Z,100.00
2019-03-18T04:47:27.780Z,100.00
2019-03-18T04:49:56.104Z,100.00
2019-03-18T04:52:24.420Z,100.00
2019-03-18T04:54:52.684Z,100.00
2019-03-18T04:57:20.964Z,100.00
2019-03-18T04:59:49.259Z,100.00
2019-03-18T05:02:18.317Z,100.00
2019-03-18T05:04:46.620Z,100.00
2019-03-18T05:07:14.884Z,100.00
2019-03-18T05:09:43.137Z,100.00
2019-03-18T05:12:11.522Z,100.00
2019-03-18T05:14:39.810Z,100.00
2019-03-18T05:17:08.092Z,100.00
2019-03-18T05:19:36.353Z,100.00
2019-03-18T05:22:04.604Z,100.00
2019-03-18T05:24:32.870Z,100.00
2019-03-18T05:27:01.109Z,100.00
2019-03-18T05:29:29.527Z,100.00
2019-03-18T05:31:57.771Z,100.00
2019-03-18T05:34:26.063Z,100.00
2019-03-18T05:36:54.379Z,100.00
2019-03-18T05:39:22.642Z,100.00
2019-03-18T05:41:50.934Z,100.00
2019-03-18T05:44:19.214Z,100.00
2019-03-18T05:46:47.457Z,100.00
2019-03-18T05:49:15.722Z,100.00
2019-03-18T05:51:44.589Z,100.00
2019-03-18T05:54:12.848Z,100.00
2019-03-18T05:56:41.126Z,100.00
2019-03-18T05:59:09.394Z,100.00
2019-03-18T06:01:42.109Z,100.00
2019-03-18T06:04:10.311Z,100.00
2019-03-18T06:06:38.589Z,100.00
2019-03-18T06:09:07.017Z,100.00
2019-03-18T06:11:35.288Z,100.00
2019-03-18T06:14:03.626Z,100.00
2019-03-18T06:16:31.948Z,100.00
2019-03-18T06:19:00.464Z,100.00
2019-03-18T06:21:28.796Z,100.00
2019-03-18T06:23:58.109Z,100.00
2019-03-18T06:26:27.180Z,100.00
2019-03-18T06:28:55.526Z,100.00
2019-03-18T06:31:23.723Z,100.00
2019-03-18T06:33:52.021Z,100.00
2019-03-18T06:36:21.912Z,100.00
2019-03-18T06:38:50.394Z,100.00
2019-03-18T06:41:18.669Z,100.00
2019-03-18T06:43:46.959Z,100.00
2019-03-18T06:46:15.401Z,100.00
2019-03-18T06:48:43.653Z,100.00
2019-03-18T06:51:11.975Z,100.00
2019-03-18T06:53:40.394Z,100.00
2019-03-18T06:56:08.612Z,100.00
2019-03-18T06:58:36.886Z,100.00
2019-03-18T07:01:05.186Z,100.00
2019-03-18T07:03:33.453Z,100.00
2019-03-18T07:06:01.714Z,100.00
2019-03-18T07:08:29.982Z,100.00
2019-03-18T07:10:58.288Z,100.00
2019-03-18T07:13:26.545Z,100.00
2019-03-18T07:15:54.798Z,100.00
2019-03-18T07:18:23.096Z,100.00
2019-03-18T07:20:51.344Z,100.00
2019-03-18T07:23:19.585Z,100.00
2019-03-18T07:25:50.646Z,100.00
2019-03-18T07:28:18.952Z,100.00
2019-03-18T07:30:47.185Z,100.00
2019-03-18T07:33:15.452Z,100.00
2019-03-18T07:35:43.730Z,100.00
2019-03-18T07:38:12.040Z,100.00
2019-03-18T07:40:40.293Z,100.00
2019-03-18T07:43:08.551Z,100.00
2019-03-18T07:45:36.821Z,100.00
2019-03-18T07:48:06.617Z,100.00
2019-03-18T07:50:35.962Z,100.00
2019-03-18T07:53:04.269Z,100.00
2019-03-18T07:55:32.554Z,100.00
2019-03-18T07:58:00.791Z,100.00
2019-03-18T08:00:29.094Z,100.00
2019-03-18T08:02:57.345Z,100.00
2019-03-18T08:05:25.657Z,100.00
2019-03-18T08:07:53.919Z,100.00
2019-03-18T08:10:22.280Z,100.00
2019-03-18T08:12:50.590Z,100.00
2019-03-18T08:15:18.947Z,100.00
2019-03-18T08:17:47.235Z,100.00
2019-03-18T08:20:16.261Z,100.00
2019-03-18T08:22:44.553Z,100.00
2019-03-18T08:25:13.090Z,100.00
2019-03-18T08:27:41.403Z,100.00
2019-03-18T08:30:19.406Z,100.00
2019-03-18T08:32:47.650Z,100.00
2019-03-18T08:35:15.970Z,100.00
2019-03-18T08:37:44.293Z,100.00
2019-03-18T08:40:12.788Z,100.00
2019-03-18T08:42:41.138Z,100.00
2019-03-18T08:45:13.437Z,100.00
2019-03-18T08:47:41.790Z,100.00
2019-03-18T08:50:12.491Z,100.00
2019-03-18T08:52:41.140Z,100.00
2019-03-18T08:55:12.984Z,100.00
2019-03-18T08:57:41.233Z,100.00
2019-03-18T09:00:14.423Z,100.00
2019-03-18T09:02:42.717Z,100.00
2019-03-18T09:05:10.981Z,100.00
2019-03-18T09:07:39.390Z,100.00
2019-03-18T09:10:15.532Z,100.00
2019-03-18T09:12:43.819Z,100.00
2019-03-18T09:15:12.446Z,100.00
2019-03-18T09:17:40.722Z,100.00
2019-03-18T09:20:19.130Z,100.00
2019-03-18T09:22:47.381Z,100.00
2019-03-18T09:25:15.712Z,100.00
2019-03-18T09:27:43.978Z,100.00
2019-03-18T09:30:17.654Z,100.00
2019-03-18T09:32:45.951Z,100.00
2019-03-18T09:35:14.181Z,98.55
2019-03-18T09:37:42.455Z,100.00
2019-03-18T09:40:12.300Z,100.00
2019-03-18T09:42:40.668Z,99.71
2019-03-18T09:45:17.939Z,100.00
2019-03-18T09:47:46.294Z,97.72
2019-03-18T09:50:14.789Z,98.66
2019-03-18T09:52:43.026Z,97.27
2019-03-18T09:55:11.465Z,94.73
2019-03-18T09:57:39.704Z,97.99
2019-03-18T10:00:13.425Z,98.35
2019-03-18T10:02:41.703Z,98.48
2019-03-18T10:05:09.988Z,97.90
2019-03-18T10:07:38.879Z,100.00
2019-03-18T10:10:11.460Z,100.00
2019-03-18T10:12:39.780Z,100.00
2019-03-18T10:15:13.152Z,96.50
2019-03-18T10:17:41.384Z,99.85
2019-03-18T10:20:09.808Z,98.90
2019-03-18T10:22:38.087Z,100.00
2019-03-18T10:25:07.665Z,100.00
2019-03-18T10:27:37.725Z,98.53
2019-03-18T10:30:09.227Z,100.00
2019-03-18T10:32:37.630Z,100.00
2019-03-18T10:35:06.306Z,100.00
2019-03-18T10:37:34.551Z,100.00
2019-03-18T10:40:02.930Z,100.00
2019-03-18T10:42:31.167Z,100.00
2019-03-18T10:44:59.556Z,100.00
2019-03-18T10:47:27.826Z,100.00
2019-03-18T10:49:56.129Z,100.00
2019-03-18T10:52:25.391Z,100.00
2019-03-18T10:54:53.674Z,100.00
2019-03-18T10:57:22.090Z,100.00
2019-03-18T10:59:50.435Z,100.00
2019-03-18T11:02:18.745Z,100.00
2019-03-18T11:04:47.021Z,100.00
2019-03-18T11:07:15.471Z,100.00
2019-03-18T11:09:43.715Z,100.00
2019-03-18T11:12:11.962Z,100.00
2019-03-18T11:14:40.225Z,100.00
2019-03-18T11:17:08.507Z,100.00
2019-03-18T11:19:36.773Z,100.00
2019-03-18T11:22:05.072Z,100.00
2019-03-18T11:24:33.321Z,100.00
2019-03-18T11:27:01.701Z,100.00
2019-03-18T11:29:29.982Z,100.00
2019-03-18T11:31:58.217Z,100.00
2019-03-18T11:34:26.485Z,100.00
2019-03-18T11:36:54.727Z,100.00
2019-03-18T11:39:23.048Z,100.00
2019-03-18T11:41:51.309Z,100.00
2019-03-18T11:44:19.607Z,100.00
2019-03-18T11:46:47.871Z,100.00
2019-03-18T11:49:16.124Z,99.21
2019-03-18T11:51:44.466Z,99.00
2019-03-18T11:54:12.759Z,94.11
2019-03-18T11:56:40.961Z,88.73
2019-03-18T11:59:09.224Z,85.82
2019-03-18T12:01:37.481Z,86.69
2019-03-18T12:04:05.829Z,87.71
2019-03-18T12:06:34.070Z,83.11
2019-03-18T12:09:02.399Z,86.11
2019-03-18T12:11:30.662Z,85.35
2019-03-18T12:13:58.901Z,89.20
2019-03-18T12:16:27.212Z,92.04
2019-03-18T12:18:55.447Z,90.25
2019-03-18T12:21:23.711Z,86.66
2019-03-18T12:23:52.011Z,87.21
2019-03-18T12:26:21.124Z,87.25
2019-03-18T12:28:49.403Z,85.04
2019-03-18T12:31:17.666Z,80.90
2019-03-18T12:33:45.918Z,74.06
2019-03-18T12:36:14.191Z,78.11
2019-03-18T12:38:42.431Z,81.38
2019-03-18T12:41:10.743Z,90.69
2019-03-18T12:43:39.074Z,93.63
2019-03-18T12:46:07.322Z,97.75
2019-03-18T12:48:35.643Z,97.83
2019-03-18T12:51:04.052Z,97.91
2019-03-18T12:53:32.289Z,98.15
2019-03-18T12:56:03.470Z,98.71
2019-03-18T12:58:31.737Z,94.62
2019-03-18T13:01:11.881Z,93.82
2019-03-18T13:03:30.010Z,93.04
2019-03-18T13:05:58.274Z,91.22
2019-03-18T13:08:26.681Z,88.20
2019-03-18T13:10:54.933Z,85.46
2019-03-18T13:13:23.170Z,86.19
2019-03-18T13:15:51.441Z,88.26
2019-03-18T13:18:19.844Z,86.39
2019-03-18T13:20:48.079Z,85.56
2019-03-18T13:23:16.332Z,85.85
2019-03-18T13:25:44.605Z,84.44
2019-03-18T13:28:12.871Z,83.77
2019-03-18T13:30:42.838Z,83.83
2019-03-18T13:33:11.097Z,83.34
2019-03-18T13:35:39.411Z,86.90
2019-03-18T13:38:07.696Z,89.00
2019-03-18T13:40:36.113Z,88.67
2019-03-18T13:43:04.358Z,88.50
2019-03-18T13:45:32.593Z,88.46
2019-03-18T13:48:01.441Z,89.21
2019-03-18T13:50:29.710Z,90.48
2019-03-18T13:52:57.981Z,88.09
2019-03-18T13:55:26.224Z,88.34
2019-03-18T13:57:54.535Z,88.00
2019-03-18T14:00:22.884Z,85.74
2019-03-18T14:02:51.146Z,83.56
2019-03-18T14:05:19.392Z,83.23
2019-03-18T14:07:59.681Z,83.00
2019-03-18T14:10:19.681Z,82.45
2019-03-18T14:12:47.942Z,78.39
2019-03-18T14:15:17.460Z,77.64
2019-03-18T14:17:45.847Z,80.08
2019-03-18T14:20:15.963Z,81.62
2019-03-18T14:22:44.221Z,79.20
2019-03-18T14:25:12.537Z,79.07
2019-03-18T14:27:40.910Z,79.60
2019-03-18T14:30:16.917Z,80.07
2019-03-18T14:32:45.214Z,80.92
2019-03-18T14:35:13.748Z,78.10
2019-03-18T14:37:43.013Z,76.25
2019-03-18T14:40:18.653Z,73.11
2019-03-18T14:42:46.897Z,73.92
2019-03-18T14:45:23.421Z,72.28
2019-03-18T14:47:51.704Z,73.96
2019-03-18T14:50:20.332Z,74.53
2019-03-18T14:52:48.659Z,76.43
2019-03-18T14:55:17.644Z,77.05
2019-03-18T14:57:46.688Z,75.70
2019-03-18T15:00:26.880Z,77.55
2019-03-18T15:02:55.192Z,77.85
2019-03-18T15:05:23.453Z,76.70
2019-03-18T15:07:51.699Z,74.56
2019-03-18T15:10:24.677Z,75.77
2019-03-18T15:12:52.935Z,78.57
2019-03-18T15:15:21.526Z,80.17
2019-03-18T15:17:49.794Z,82.37
2019-03-18T15:20:23.563Z,81.91
2019-03-18T15:22:51.815Z,82.68
2019-03-18T15:25:25.093Z,84.46
2019-03-18T15:27:53.743Z,84.07
2019-03-18T15:30:22.134Z,85.85
2019-03-18T15:32:50.388Z,86.74
2019-03-18T15:35:18.804Z,87.93
2019-03-18T15:37:47.160Z,88.59
2019-03-18T15:40:29.322Z,83.04
2019-03-18T15:42:57.616Z,82.68
2019-03-18T15:45:25.889Z,84.91
2019-03-18T15:47:54.133Z,84.89
2019-03-18T15:50:25.703Z,85.89
2019-03-18T15:52:53.993Z,82.03
2019-03-18T15:55:24.166Z,83.06
2019-03-18T15:57:52.320Z,83.84
2019-03-18T16:00:25.447Z,84.30
2019-03-18T16:02:53.731Z,84.46
2019-03-18T16:05:22.022Z,84.43
2019-03-18T16:07:50.327Z,84.94
2019-03-18T16:10:19.405Z,83.70
2019-03-18T16:12:48.237Z,85.49
2019-03-18T16:15:17.455Z,84.91
2019-03-18T16:17:45.728Z,88.14
2019-03-18T16:20:22.594Z,90.23
2019-03-18T16:22:50.887Z,90.39
2019-03-18T16:25:19.259Z,90.81
2019-03-18T16:27:47.536Z,92.37
2019-03-18T16:30:17.048Z,93.16
2019-03-18T16:32:45.336Z,89.43
2019-03-18T16:35:16.193Z,88.47
2019-03-18T16:37:44.793Z,88.19
2019-03-18T16:40:14.737Z,87.92
2019-03-18T16:42:43.257Z,89.12
2019-03-18T16:45:13.666Z,90.15
2019-03-18T16:47:41.910Z,86.43
2019-03-18T16:50:16.453Z,86.30
2019-03-18T16:52:44.698Z,84.65
2019-03-18T16:55:12.990Z,85.42
2019-03-18T16:57:41.230Z,84.83
2019-03-18T17:00:20.981Z,85.51
2019-03-18T17:02:49.240Z,84.71
2019-03-18T17:05:17.511Z,85.71
2019-03-18T17:07:45.773Z,87.51
2019-03-18T17:10:15.100Z,88.69
2019-03-18T17:12:43.544Z,89.92
2019-03-18T17:15:13.221Z,90.55
2019-03-18T17:17:41.465Z,91.53
2019-03-18T17:20:11.921Z,92.04
2019-03-18T17:22:48.875Z,92.49
2019-03-18T17:25:33.374Z,92.64
2019-03-18T17:28:01.884Z,92.83
2019-03-18T17:30:30.469Z,93.06
2019-03-18T17:32:58.740Z,96.84
2019-03-18T17:35:26.973Z,99.62
2019-03-18T17:37:55.240Z,100.00
2019-03-18T17:40:23.539Z,100.00
2019-03-18T17:42:51.804Z,100.00
2019-03-18T17:45:20.047Z,100.00
2019-03-18T17:47:48.355Z,100.00
2019-03-18T17:50:19.460Z,100.00
2019-03-18T17:53:00.898Z,100.00
2019-03-18T17:55:17.768Z,100.00
2019-03-18T17:57:46.079Z,100.00
2019-03-18T18:00:32.681Z,100.00
2019-03-18T18:03:01.139Z,100.00
2019-03-18T18:05:29.378Z,100.00
2019-03-18T18:07:57.730Z,100.00
2019-03-18T18:10:26.135Z,100.00
2019-03-18T18:12:54.497Z,100.00
2019-03-18T18:15:22.768Z,100.00
2019-03-18T18:17:51.082Z,100.00
2019-03-18T18:20:19.390Z,100.00
2019-03-18T18:22:47.643Z,100.00
2019-03-18T18:25:16.496Z,100.00
2019-03-18T18:27:44.765Z,100.00
2019-03-18T18:30:15.302Z,100.00
2019-03-18T18:32:43.570Z,100.00
2019-03-18T18:35:12.604Z,100.00
2019-03-18T18:37:40.992Z,100.00
2019-03-18T18:40:26.891Z,100.00
2019-03-18T18:42:55.190Z,100.00
2019-03-18T18:45:23.424Z,100.00
2019-03-18T18:47:51.718Z,100.00
2019-03-18T18:50:19.956Z,100.00
2019-03-18T18:52:48.262Z,100.00
2019-03-18T18:55:16.628Z,100.00
2019-03-18T18:57:44.915Z,100.00
2019-03-18T19:00:15.279Z,100.00
2019-03-18T19:02:43.574Z,100.00
2019-03-18T19:05:13.591Z,100.00
2019-03-18T19:07:41.984Z,100.00
2019-03-18T19:10:13.003Z,100.00
2019-03-18T19:12:41.350Z,100.00
2019-03-18T19:15:18.410Z,100.00
2019-03-18T19:17:46.690Z,100.00
2019-03-18T19:20:14.928Z,100.00
2019-03-18T19:22:43.228Z,100.00
2019-03-18T19:25:15.764Z,100.00
2019-03-18T19:27:44.104Z,100.00
2019-03-18T19:30:15.610Z,100.00
2019-03-18T19:32:43.942Z,100.00
2019-03-18T19:35:12.176Z,100.00
2019-03-18T19:37:40.425Z,100.00
2019-03-18T19:40:11.464Z,100.00
2019-03-18T19:42:39.823Z,100.00
2019-03-18T19:45:10.657Z,100.00
2019-03-18T19:47:38.918Z,100.00
2019-03-18T19:50:12.968Z,100.00
2019-03-18T19:52:41.248Z,100.00
2019-03-18T19:55:09.575Z,100.00
2019-03-18T19:57:37.876Z,100.00
2019-03-18T20:00:12.009Z,100.00
2019-03-18T20:02:40.287Z,100.00
2019-03-18T20:05:15.011Z,100.00
2019-03-18T20:07:38.551Z,100.00
2019-03-18T20:10:12.144Z,100.00
2019-03-18T20:12:40.419Z,100.00
2019-03-18T20:15:11.468Z,100.00
2019-03-18T20:17:39.790Z,100.00
2019-03-18T20:20:22.655Z,100.00
2019-03-18T20:22:50.996Z,100.00
2019-03-18T20:25:19.256Z,100.00
2019-03-18T20:27:47.507Z,100.00
2019-03-18T20:30:20.650Z,100.00
2019-03-18T20:32:48.963Z,100.00
2019-03-18T20:35:19.426Z,100.00
2019-03-18T20:37:47.693Z,100.00
2019-03-18T20:40:16.428Z,100.00
2019-03-18T20:42:44.873Z,100.00
2019-03-18T20:45:21.611Z,100.00
2019-03-18T20:47:49.961Z,100.00
2019-03-18T20:50:23.051Z,100.00
2019-03-18T20:52:51.362Z,100.00
2019-03-18T20:55:19.688Z,100.00
2019-03-18T20:57:48.009Z,100.00
2019-03-18T21:00:24.047Z,100.00
2019-03-18T21:02:53.053Z,100.00
2019-03-18T21:05:21.341Z,100.00
2019-03-18T21:07:49.686Z,100.00
2019-03-18T21:10:18.820Z,100.00
2019-03-18T21:12:47.197Z,100.00
2019-03-18T21:15:16.383Z,100.00
2019-03-18T21:17:44.667Z,100.00
2019-03-18T21:20:24.263Z,100.00
2019-03-18T21:22:53.320Z,100.00
2019-03-18T21:25:21.607Z,100.00
2019-03-18T21:27:49.939Z,100.00
2019-03-18T21:30:22.242Z,100.00
2019-03-18T21:32:50.655Z,100.00
2019-03-18T21:35:18.923Z,100.00
2019-03-18T21:37:47.314Z,100.00
2019-03-18T21:40:17.691Z,100.00
2019-03-18T21:42:45.936Z,100.00
2019-03-18T21:45:16.502Z,100.00
2019-03-18T21:47:44.820Z,100.00
2019-03-18T21:50:14.609Z,100.00
2019-03-18T21:52:43.019Z,100.00
2019-03-18T21:55:11.262Z,100.00
2019-03-18T21:57:39.549Z,100.00
2019-03-18T22:00:22.035Z,100.00
2019-03-18T22:02:50.267Z,100.00
2019-03-18T22:05:18.512Z,100.00
2019-03-18T22:07:46.857Z,100.00
2019-03-18T22:10:16.551Z,100.00
2019-03-18T22:12:44.850Z,100.00
2019-03-18T22:15:14.249Z,100.00
2019-03-18T22:17:42.516Z,100.00
2019-03-18T22:20:13.526Z,100.00
2019-03-18T22:22:41.780Z,100.00
2019-03-18T22:25:11.568Z,100.00
2019-03-18T22:27:40.003Z,100.00
2019-03-18T22:30:18.097Z,100.00
2019-03-18T22:32:46.576Z,100.00
2019-03-18T22:35:14.818Z,100.00
2019-03-18T22:37:43.087Z,100.00
2019-03-18T22:40:15.306Z,100.00
2019-03-18T22:42:45.860Z,100.00
2019-03-18T22:45:15.493Z,100.00
2019-03-18T22:47:43.735Z,100.00
2019-03-18T22:50:12.879Z,100.00
2019-03-18T22:52:41.151Z,100.00
2019-03-18T22:55:15.555Z,100.00
2019-03-18T22:57:43.805Z,100.00
2019-03-18T23:00:26.593Z,100.00
2019-03-18T23:02:54.910Z,100.00
2019-03-18T23:05:23.165Z,100.00
2019-03-18T23:07:52.272Z,100.00
2019-03-18T23:10:20.515Z,100.00
2019-03-18T23:12:48.811Z,100.00
2019-03-18T23:15:17.080Z,100.00
2019-03-18T23:17:45.560Z,100.00
2019-03-18T23:20:13.800Z,100.00
2019-03-18T23:22:42.778Z,100.00
2019-03-18T23:25:11.271Z,100.00
2019-03-18T23:27:39.547Z,100.00
2019-03-18T23:30:10.643Z,100.00
2019-03-18T23:32:38.940Z,100.00
2019-03-18T23:35:07.183Z,100.00
2019-03-18T23:37:35.604Z,100.00
2019-03-18T23:40:05.712Z,100.00
2019-03-18T23:42:34.035Z,100.00
2019-03-18T23:45:02.413Z,100.00
2019-03-18T23:47:30.655Z,100.00
2019-03-18T23:49:58.959Z,100.00
2019-03-18T23:52:27.246Z,100.00
2019-03-18T23:54:55.492Z,100.00
2019-03-18T23:57:23.766Z,100.00
2019-03-18T23:59:52.008Z,100.00
